createdAt,value
2024-03-03T00:01:51.101Z,0.00
2024-03-03T00:04:18.740Z,0.00
2024-03-03T00:06:49.120Z,0.28
2024-03-03T00:09:27.497Z,0.00
2024-03-03T00:11:57.597Z,0.10
2024-03-03T00:14:28.117Z,0.00
2024-03-03T00:16:56.055Z,0.00
2024-03-03T00:19:26.905Z,0.00
2024-03-03T00:21:59.178Z,0.05
2024-03-03T00:24:26.979Z,0.08
2024-03-03T00:26:56.788Z,0.00
2024-03-03T00:29:24.246Z,0.00
2024-03-03T00:31:52.048Z,0.10
2024-03-03T00:34:19.954Z,0.00
2024-03-03T00:36:47.604Z,0.00
2024-03-03T00:39:17.228Z,0.00
2024-03-03T00:41:45.566Z,0.00
2024-03-03T00:44:15.887Z,0.00
2024-03-03T00:46:43.579Z,0.00
2024-03-03T00:49:11.042Z,0.20
2024-03-03T00:51:40.455Z,0.10
2024-03-03T00:54:08.238Z,0.00
2024-03-03T00:56:36.115Z,0.10
2024-03-03T00:59:03.799Z,0.00
2024-03-03T01:01:31.718Z,0.05
2024-03-03T01:03:59.365Z,0.10
2024-03-03T01:06:29.557Z,0.28
2024-03-03T01:08:57.977Z,0.00
2024-03-03T01:11:25.626Z,0.00
2024-03-03T01:13:53.817Z,0.00
2024-03-03T01:16:21.556Z,0.00
2024-03-03T01:18:49.568Z,0.00
2024-03-03T01:21:17.751Z,0.10
2024-03-03T01:23:45.431Z,0.00
2024-03-03T01:26:15.238Z,0.00
2024-03-03T01:28:42.801Z,0.10
2024-03-03T01:31:10.630Z,0.00
2024-03-03T01:33:38.674Z,0.00
2024-03-03T01:36:06.940Z,0.00
2024-03-03T01:38:37.080Z,0.00
2024-03-03T01:41:07.727Z,0.10
2024-03-03T01:43:36.224Z,0.10
2024-03-03T01:46:04.005Z,0.00
2024-03-03T01:48:35.909Z,0.00
2024-03-03T01:51:05.311Z,0.55
2024-03-03T01:53:34.540Z,0.00
2024-03-03T01:56:03.671Z,0.00
2024-03-03T01:58:34.195Z,0.00
2024-03-03T02:01:03.563Z,0.00
2024-03-03T02:03:33.449Z,0.00
2024-03-03T02:06:02.901Z,0.10
2024-03-03T02:08:34.269Z,0.00
2024-03-03T02:11:02.393Z,0.10
2024-03-03T02:13:31.837Z,0.00
2024-03-03T02:15:59.362Z,0.10
2024-03-03T02:18:29.630Z,0.00
2024-03-03T02:20:57.376Z,0.00
2024-03-03T02:23:24.836Z,0.00
2024-03-03T02:25:53.306Z,0.00
2024-03-03T02:28:26.106Z,0.00
2024-03-03T02:30:56.069Z,0.10
2024-03-03T02:33:23.528Z,0.10
2024-03-03T02:35:51.506Z,0.00
2024-03-03T02:38:19.389Z,0.20
2024-03-03T02:40:48.796Z,0.00
2024-03-03T02:43:16.670Z,0.00
2024-03-03T02:45:44.195Z,0.00
2024-03-03T02:48:12.016Z,0.00
2024-03-03T02:50:41.716Z,0.00
2024-03-03T02:53:11.879Z,0.10
2024-03-03T02:55:41.363Z,0.00
2024-03-03T02:58:11.280Z,0.00
2024-03-03T03:00:44.008Z,0.00
2024-03-03T03:03:11.484Z,0.00
2024-03-03T03:05:39.430Z,0.10
2024-03-03T03:08:07.335Z,0.10
2024-03-03T03:10:34.949Z,0.10
2024-03-03T03:13:02.780Z,0.10
2024-03-03T03:15:36.989Z,0.00
2024-03-03T03:18:05.505Z,0.03
2024-03-03T03:20:33.563Z,0.00
2024-03-03T03:23:01.532Z,0.00
2024-03-03T03:25:29.478Z,0.10
2024-03-03T03:27:59.219Z,0.00
2024-03-03T03:30:26.830Z,0.00
2024-03-03T03:32:54.634Z,0.00
2024-03-03T03:35:24.451Z,0.00
2024-03-03T03:37:54.215Z,0.00
2024-03-03T03:40:23.005Z,0.10
2024-03-03T03:42:50.418Z,0.00
2024-03-03T03:45:17.975Z,0.00
2024-03-03T03:47:47.771Z,0.10
2024-03-03T03:50:15.317Z,0.00
2024-03-03T03:52:43.341Z,0.15
2024-03-03T03:55:10.869Z,0.20
2024-03-03T03:57:39.751Z,0.10
2024-03-03T04:00:11.481Z,0.05
2024-03-03T04:02:38.943Z,0.10
2024-03-03T04:05:09.322Z,0.03
2024-03-03T04:07:38.711Z,0.20
2024-03-03T04:10:08.784Z,0.10
2024-03-03T04:12:36.605Z,0.10
2024-03-03T04:15:04.539Z,0.28
2024-03-03T04:17:34.410Z,0.10
2024-03-03T04:20:02.317Z,0.10
2024-03-03T04:22:30.819Z,0.30
2024-03-03T04:24:58.664Z,0.10
2024-03-03T04:27:28.555Z,0.00
2024-03-03T04:29:55.975Z,0.20
2024-03-03T04:32:25.861Z,0.00
2024-03-03T04:34:53.349Z,0.00
2024-03-03T04:37:21.414Z,0.10
2024-03-03T04:39:48.827Z,0.00
2024-03-03T04:42:16.330Z,0.00
2024-03-03T04:44:44.113Z,0.10
2024-03-03T04:47:11.968Z,0.00
2024-03-03T04:49:42.868Z,0.00
2024-03-03T04:52:10.321Z,0.17
2024-03-03T04:54:38.535Z,0.08
2024-03-03T04:57:06.314Z,0.22
2024-03-03T04:59:34.164Z,0.10
2024-03-03T05:02:02.019Z,0.00
2024-03-03T05:04:31.931Z,0.00
2024-03-03T05:07:01.641Z,0.17
2024-03-03T05:09:29.068Z,0.20
2024-03-03T05:11:59.238Z,0.00
2024-03-03T05:14:27.088Z,0.00
2024-03-03T05:16:54.867Z,0.10
2024-03-03T05:19:24.659Z,0.00
2024-03-03T05:21:54.247Z,0.00
2024-03-03T05:24:23.013Z,0.00
2024-03-03T05:26:52.626Z,0.22
2024-03-03T05:29:20.797Z,0.00
2024-03-03T05:31:48.585Z,0.05
2024-03-03T05:34:16.942Z,0.20
2024-03-03T05:36:45.748Z,0.00
2024-03-03T05:39:14.729Z,0.10
2024-03-03T05:41:43.140Z,0.10
2024-03-03T05:44:12.221Z,0.13
2024-03-03T05:46:42.275Z,0.00
2024-03-03T05:49:10.201Z,0.00
2024-03-03T05:51:37.703Z,0.40
2024-03-03T05:54:07.572Z,0.00
2024-03-03T05:56:38.718Z,0.00
2024-03-03T05:59:06.731Z,0.05
2024-03-03T06:01:34.253Z,0.00
2024-03-03T06:04:02.253Z,0.10
2024-03-03T06:06:30.061Z,0.10
2024-03-03T06:09:00.495Z,0.05
2024-03-03T06:11:28.280Z,0.00
2024-03-03T06:13:55.749Z,0.10
2024-03-03T06:16:25.425Z,0.00
2024-03-03T06:18:55.284Z,0.00
2024-03-03T06:21:23.252Z,0.00
2024-03-03T06:23:50.659Z,0.00
2024-03-03T06:26:18.300Z,0.10
2024-03-03T06:28:46.919Z,0.60
2024-03-03T06:31:14.740Z,0.10
2024-03-03T06:33:42.643Z,0.10
2024-03-03T06:36:19.660Z,0.00
2024-03-03T06:38:51.499Z,0.10
2024-03-03T06:41:23.965Z,0.20
2024-03-03T06:43:51.931Z,0.10
2024-03-03T06:46:20.044Z,0.00
2024-03-03T06:48:47.629Z,0.03
2024-03-03T06:51:17.388Z,0.17
2024-03-03T06:53:44.808Z,0.00
2024-03-03T06:56:17.171Z,0.05
2024-03-03T06:58:49.567Z,0.10
2024-03-03T07:01:17.156Z,0.10
2024-03-03T07:03:59.881Z,0.00
2024-03-03T07:06:27.402Z,0.20
2024-03-03T07:08:57.311Z,0.00
2024-03-03T07:11:25.185Z,0.10
2024-03-03T07:13:52.752Z,0.20
2024-03-03T07:16:25.845Z,0.20
2024-03-03T07:18:53.796Z,0.00
2024-03-03T07:21:23.255Z,0.00
2024-03-03T07:23:51.710Z,0.30
2024-03-03T07:26:20.672Z,0.08
2024-03-03T07:28:49.846Z,0.45
2024-03-03T07:31:21.248Z,0.00
2024-03-03T07:33:50.375Z,0.22
2024-03-03T07:36:17.879Z,0.20
2024-03-03T07:38:46.379Z,0.47
2024-03-03T07:41:14.043Z,0.20
2024-03-03T07:43:46.652Z,0.10
2024-03-03T07:46:14.260Z,0.35
2024-03-03T07:48:42.232Z,0.10
2024-03-03T07:51:10.279Z,0.10
2024-03-03T07:53:37.726Z,0.10
2024-03-03T07:56:05.540Z,0.10
2024-03-03T07:58:38.513Z,0.10
2024-03-03T08:01:06.512Z,0.10
2024-03-03T08:03:35.632Z,0.08
2024-03-03T08:06:03.252Z,0.20
2024-03-03T08:08:31.133Z,0.00
2024-03-03T08:10:58.589Z,0.25
2024-03-03T08:13:26.542Z,0.20
2024-03-03T08:15:54.032Z,0.22
2024-03-03T08:18:21.902Z,0.35
2024-03-03T08:20:50.476Z,0.75
2024-03-03T08:23:17.955Z,0.10
2024-03-03T08:25:48.221Z,0.08
2024-03-03T08:28:15.891Z,0.10
2024-03-03T08:30:43.914Z,0.08
2024-03-03T08:33:11.534Z,0.20
2024-03-03T08:35:39.752Z,0.38
2024-03-03T08:38:07.338Z,0.00
2024-03-03T08:40:37.279Z,0.00
2024-03-03T08:43:04.987Z,0.50
2024-03-03T08:45:32.797Z,0.30
2024-03-03T08:48:00.236Z,0.93
2024-03-03T08:50:27.896Z,0.30
2024-03-03T08:52:58.892Z,0.10
2024-03-03T08:55:26.379Z,0.25
2024-03-03T08:57:54.519Z,0.30
2024-03-03T09:00:24.574Z,0.30
2024-03-03T09:02:52.062Z,0.20
2024-03-03T09:05:19.577Z,0.20
2024-03-03T09:07:47.369Z,0.10
2024-03-03T09:10:14.994Z,0.28
2024-03-03T09:12:43.786Z,0.40
2024-03-03T09:15:11.674Z,0.05
2024-03-03T09:17:41.441Z,0.40
2024-03-03T09:20:09.213Z,0.05
2024-03-03T09:22:37.858Z,0.10
2024-03-03T09:25:08.983Z,0.20
2024-03-03T09:27:37.360Z,0.20
2024-03-03T09:30:07.485Z,0.10
2024-03-03T09:32:36.895Z,0.00
2024-03-03T09:35:08.310Z,0.10
2024-03-03T09:37:35.753Z,0.00
2024-03-03T09:40:07.376Z,0.15
2024-03-03T09:42:35.245Z,0.10
2024-03-03T09:45:11.556Z,0.10
2024-03-03T09:47:40.793Z,0.10
2024-03-03T09:50:14.013Z,0.20
2024-03-03T09:52:46.841Z,0.40
2024-03-03T09:55:14.405Z,0.00
2024-03-03T09:57:44.093Z,0.28
2024-03-03T10:00:12.146Z,0.40
2024-03-03T10:02:42.953Z,0.38
2024-03-03T10:05:12.182Z,0.10
2024-03-03T10:07:49.931Z,0.30
2024-03-03T10:10:28.486Z,0.00
2024-03-03T10:12:59.448Z,0.00
2024-03-03T10:15:27.623Z,0.10
2024-03-03T10:17:55.113Z,0.13
2024-03-03T10:20:22.861Z,0.10
2024-03-03T10:22:52.703Z,0.43
2024-03-03T10:25:20.581Z,0.43
2024-03-03T10:27:50.364Z,0.00
2024-03-03T10:30:24.033Z,0.00
2024-03-03T10:33:04.312Z,0.00
2024-03-03T10:35:31.878Z,0.10
2024-03-03T10:38:00.928Z,0.10
2024-03-03T10:40:29.522Z,0.05
2024-03-03T10:42:57.647Z,0.45
2024-03-03T10:45:30.162Z,0.20
2024-03-03T10:47:59.754Z,0.00
2024-03-03T10:50:27.555Z,0.10
2024-03-03T10:52:57.082Z,0.20
2024-03-03T10:55:27.672Z,0.10
2024-03-03T10:58:01.189Z,0.10
2024-03-03T11:00:29.450Z,0.00
2024-03-03T11:03:05.422Z,0.50
2024-03-03T11:05:33.123Z,0.95
2024-03-03T11:08:07.947Z,0.20
2024-03-03T11:10:35.749Z,0.05
2024-03-03T11:13:06.453Z,0.00
2024-03-03T11:15:39.099Z,0.30
2024-03-03T11:18:14.778Z,0.25
2024-03-03T11:20:48.427Z,0.00
2024-03-03T11:23:27.906Z,0.20
2024-03-03T11:26:03.766Z,0.00
2024-03-03T11:28:34.504Z,0.10
2024-03-03T11:31:02.583Z,0.00
2024-03-03T11:33:31.110Z,0.10
2024-03-03T11:35:59.001Z,0.00
2024-03-03T11:38:46.944Z,0.20
2024-03-03T11:41:19.732Z,0.00
2024-03-03T11:43:50.584Z,0.10
2024-03-03T11:46:55.208Z,0.00
2024-03-03T11:49:26.141Z,0.20
2024-03-03T11:52:01.313Z,0.20
2024-03-03T11:54:37.741Z,0.10
2024-03-03T11:57:13.186Z,0.00
2024-03-03T11:59:51.436Z,0.10
2024-03-03T12:02:19.806Z,0.10
2024-03-03T12:04:50.787Z,0.05
2024-03-03T12:07:25.016Z,0.00
2024-03-03T12:09:52.961Z,0.03
2024-03-03T12:12:20.806Z,0.00
2024-03-03T12:14:49.933Z,0.08
2024-03-03T12:17:18.828Z,0.00
2024-03-03T12:19:48.359Z,0.00
2024-03-03T12:22:17.357Z,0.20
2024-03-03T12:24:54.838Z,0.30
2024-03-03T12:27:22.942Z,0.20
2024-03-03T12:30:11.142Z,0.35
2024-03-03T12:32:39.236Z,0.10
2024-03-03T12:35:08.134Z,0.00
2024-03-03T12:37:35.865Z,0.05
2024-03-03T12:40:04.381Z,0.15
2024-03-03T12:42:32.213Z,0.55
2024-03-03T12:45:04.424Z,1.27
2024-03-03T12:47:31.903Z,0.90
2024-03-03T12:49:59.969Z,0.10
2024-03-03T12:52:30.183Z,0.00
2024-03-03T12:54:59.857Z,0.10
2024-03-03T12:57:42.518Z,0.10
2024-03-03T13:00:15.135Z,0.00
2024-03-03T13:02:44.516Z,0.10
2024-03-03T13:05:14.450Z,0.30
2024-03-03T13:07:52.727Z,0.32
2024-03-03T13:10:22.378Z,0.40
2024-03-03T13:12:51.855Z,0.15
2024-03-03T13:15:24.630Z,0.00
2024-03-03T13:18:13.715Z,0.52
2024-03-03T13:20:41.863Z,0.20
2024-03-03T13:23:17.622Z,0.35
2024-03-03T13:25:47.668Z,0.40
2024-03-03T13:28:26.113Z,0.22
2024-03-03T13:31:04.455Z,0.30
2024-03-03T13:33:35.073Z,0.50
2024-03-03T13:36:03.625Z,0.50
2024-03-03T13:38:32.140Z,0.50
2024-03-03T13:41:00.479Z,0.88
2024-03-03T13:43:29.815Z,0.38
2024-03-03T13:45:59.260Z,0.20
2024-03-03T13:48:27.489Z,0.88
2024-03-03T13:51:01.706Z,0.32
2024-03-03T13:53:30.056Z,0.98
2024-03-03T13:55:57.892Z,1.05
2024-03-03T13:58:26.202Z,0.77
2024-03-03T14:00:54.600Z,0.75
2024-03-03T14:03:43.397Z,0.98
2024-03-03T14:06:11.581Z,1.30
2024-03-03T14:08:59.840Z,0.90
2024-03-03T14:11:28.583Z,0.82
2024-03-03T14:14:25.021Z,1.23
2024-03-03T14:16:53.222Z,0.88
2024-03-03T14:19:20.843Z,1.10
2024-03-03T14:21:51.554Z,1.13
2024-03-03T14:24:19.063Z,1.52
2024-03-03T14:26:48.924Z,2.58
2024-03-03T14:29:26.136Z,1.30
2024-03-03T14:31:53.615Z,1.13
2024-03-03T14:34:21.014Z,0.93
2024-03-03T14:36:49.273Z,0.77
2024-03-03T14:39:16.823Z,1.45
2024-03-03T14:41:45.852Z,2.88
2024-03-03T14:44:13.636Z,1.85
2024-03-03T14:46:41.478Z,2.75
2024-03-03T14:49:11.261Z,1.30
2024-03-03T14:51:38.793Z,3.75
2024-03-03T14:54:06.405Z,2.75
2024-03-03T14:56:36.371Z,1.70
2024-03-03T14:59:06.801Z,0.52
2024-03-03T15:01:35.444Z,0.77
2024-03-03T15:04:06.348Z,0.85
2024-03-03T15:06:34.862Z,1.13
2024-03-03T15:09:03.996Z,0.60
2024-03-03T15:11:31.826Z,0.73
2024-03-03T15:14:02.428Z,1.52
2024-03-03T15:16:32.653Z,1.00
2024-03-03T15:19:02.946Z,1.25
2024-03-03T15:21:33.655Z,1.13
2024-03-03T15:24:06.090Z,1.40
2024-03-03T15:26:34.419Z,0.73
2024-03-03T15:29:07.624Z,1.00
2024-03-03T15:31:38.935Z,1.13
2024-03-03T15:34:07.601Z,1.13
2024-03-03T15:36:35.613Z,1.20
2024-03-03T15:39:03.010Z,1.33
2024-03-03T15:41:30.497Z,1.15
2024-03-03T15:44:03.398Z,1.30
2024-03-03T15:46:31.378Z,1.17
2024-03-03T15:49:01.304Z,1.65
2024-03-03T15:51:29.363Z,1.00
2024-03-03T15:53:57.168Z,1.10
2024-03-03T15:56:27.492Z,0.93
2024-03-03T15:58:55.183Z,0.60
2024-03-03T16:01:25.478Z,0.90
2024-03-03T16:03:53.440Z,1.25
2024-03-03T16:06:21.019Z,1.00
2024-03-03T16:08:49.283Z,0.77
2024-03-03T16:11:17.108Z,0.60
2024-03-03T16:13:47.453Z,0.90
2024-03-03T16:16:16.991Z,0.70
2024-03-03T16:18:44.886Z,0.43
2024-03-03T16:21:14.567Z,0.68
2024-03-03T16:23:44.933Z,0.30
2024-03-03T16:26:12.793Z,0.28
2024-03-03T16:28:40.602Z,0.40
2024-03-03T16:31:08.118Z,0.50
2024-03-03T16:33:35.916Z,0.63
2024-03-03T16:36:05.480Z,0.40
2024-03-03T16:38:33.396Z,0.40
2024-03-03T16:41:03.311Z,0.52
2024-03-03T16:43:30.871Z,0.77
2024-03-03T16:46:01.799Z,1.50
2024-03-03T16:48:29.360Z,1.30
2024-03-03T16:50:57.128Z,1.15
2024-03-03T16:53:26.849Z,0.93
2024-03-03T16:55:57.110Z,4.93
2024-03-03T16:58:25.536Z,1.50
2024-03-03T17:00:53.805Z,1.27
2024-03-03T17:03:21.334Z,0.90
2024-03-03T17:05:53.817Z,0.35
2024-03-03T17:08:21.313Z,0.52
2024-03-03T17:10:48.796Z,0.77
2024-03-03T17:13:16.843Z,0.77
2024-03-03T17:15:47.270Z,0.47
2024-03-03T17:18:14.902Z,0.40
2024-03-03T17:20:42.574Z,0.50
2024-03-03T17:23:14.936Z,0.63
2024-03-03T17:25:43.835Z,0.50
2024-03-03T17:28:13.865Z,0.70
2024-03-03T17:30:41.893Z,0.70
2024-03-03T17:33:10.407Z,0.25
2024-03-03T17:35:38.470Z,0.47
2024-03-03T17:38:08.494Z,0.52
2024-03-03T17:40:36.917Z,0.50
2024-03-03T17:43:06.693Z,0.45
2024-03-03T17:45:34.083Z,0.30
2024-03-03T17:48:04.580Z,0.95
2024-03-03T17:50:32.060Z,0.63
2024-03-03T17:53:00.747Z,0.38
2024-03-03T17:55:31.470Z,0.47
2024-03-03T17:58:01.221Z,0.65
2024-03-03T18:00:28.733Z,0.30
2024-03-03T18:02:59.352Z,0.50
2024-03-03T18:05:28.864Z,0.32
2024-03-03T18:07:56.346Z,0.50
2024-03-03T18:10:25.737Z,0.30
2024-03-03T18:12:53.364Z,0.40
2024-03-03T18:15:20.989Z,0.50
2024-03-03T18:17:50.774Z,0.98
2024-03-03T18:20:18.443Z,0.22
2024-03-03T18:22:48.795Z,0.25
2024-03-03T18:25:16.500Z,0.50
2024-03-03T18:27:43.963Z,0.20
2024-03-03T18:30:15.612Z,0.32
2024-03-03T18:32:44.341Z,0.30
2024-03-03T18:35:12.311Z,0.60
2024-03-03T18:37:39.920Z,0.60
2024-03-03T18:40:14.730Z,0.25
2024-03-03T18:42:42.699Z,0.40
2024-03-03T18:45:10.428Z,0.10
2024-03-03T18:47:40.077Z,0.50
2024-03-03T18:50:10.909Z,0.43
2024-03-03T18:52:38.669Z,0.40
2024-03-03T18:55:06.848Z,0.20
2024-03-03T18:57:34.841Z,0.55
2024-03-03T19:00:02.449Z,0.73
2024-03-03T19:02:30.465Z,0.17
2024-03-03T19:05:01.244Z,0.45
2024-03-03T19:07:33.839Z,0.10
2024-03-03T19:10:03.125Z,0.20
2024-03-03T19:12:31.514Z,0.03
2024-03-03T19:14:59.134Z,0.50
2024-03-03T19:17:26.779Z,0.60
2024-03-03T19:19:54.612Z,0.13
2024-03-03T19:22:22.288Z,1.00
2024-03-03T19:24:50.565Z,0.50
2024-03-03T19:27:19.238Z,0.65
2024-03-03T19:29:46.784Z,0.70
2024-03-03T19:32:15.012Z,0.50
2024-03-03T19:34:43.139Z,0.32
2024-03-03T19:37:10.743Z,0.85
2024-03-03T19:39:38.469Z,0.60
2024-03-03T19:42:07.683Z,1.30
2024-03-03T19:44:35.375Z,0.63
2024-03-03T19:47:03.351Z,0.95
2024-03-03T19:49:32.132Z,1.02
2024-03-03T19:52:00.505Z,0.70
2024-03-03T19:54:30.366Z,0.63
2024-03-03T19:56:59.315Z,0.30
2024-03-03T19:59:27.390Z,0.30
2024-03-03T20:01:57.782Z,0.40
2024-03-03T20:04:30.959Z,0.30
2024-03-03T20:09:28.143Z,0.20
2024-03-03T20:11:55.809Z,0.65
2024-03-03T20:14:23.295Z,0.30
2024-03-03T20:16:53.133Z,0.20
2024-03-03T20:19:21.111Z,0.57
2024-03-03T20:21:51.256Z,0.30
2024-03-03T20:24:18.815Z,0.15
2024-03-03T20:26:58.119Z,0.10
2024-03-03T20:29:25.851Z,0.50
2024-03-03T20:31:54.930Z,0.30
2024-03-03T20:34:25.223Z,0.20
2024-03-03T20:36:53.563Z,0.32
2024-03-03T20:39:21.130Z,0.30
2024-03-03T20:41:53.002Z,0.30
2024-03-03T20:44:21.982Z,0.20
2024-03-03T20:46:52.696Z,0.20
2024-03-03T20:49:21.846Z,0.50
2024-03-03T20:51:49.756Z,0.20
2024-03-03T20:54:19.659Z,0.40
2024-03-03T20:56:47.952Z,0.15
2024-03-03T20:59:15.672Z,0.15
2024-03-03T21:01:43.562Z,0.20
2024-03-03T21:04:13.314Z,0.10
2024-03-03T21:06:41.471Z,0.03
2024-03-03T21:09:14.841Z,0.20
2024-03-03T21:14:10.634Z,0.25
2024-03-03T21:16:41.262Z,0.08
2024-03-03T21:19:10.426Z,0.30
2024-03-03T21:21:37.925Z,0.20
2024-03-03T21:24:06.326Z,0.20
2024-03-03T21:26:34.153Z,0.32
2024-03-03T21:29:04.239Z,0.22
2024-03-03T21:31:34.191Z,0.15
2024-03-03T21:34:06.306Z,0.40
2024-03-03T21:36:35.567Z,0.20
2024-03-03T21:39:03.540Z,0.17
2024-03-03T21:41:31.428Z,0.13
2024-03-03T21:43:59.076Z,0.52
2024-03-03T21:46:27.793Z,0.10
2024-03-03T21:48:55.721Z,0.10
2024-03-03T21:51:25.234Z,0.20
2024-03-03T21:53:55.480Z,0.98
2024-03-03T21:56:23.608Z,0.57
2024-03-03T21:58:51.346Z,0.52
2024-03-03T22:01:19.261Z,0.30
2024-03-03T22:03:49.234Z,0.10
2024-03-03T22:06:18.831Z,0.40
2024-03-03T22:08:46.751Z,0.10
2024-03-03T22:11:14.453Z,0.10
2024-03-03T22:13:42.409Z,0.65
2024-03-03T22:16:10.042Z,0.52
2024-03-03T22:18:38.939Z,0.00
2024-03-03T22:21:06.547Z,0.10
2024-03-03T22:23:34.293Z,0.20
2024-03-03T22:26:04.160Z,0.17
2024-03-03T22:28:32.603Z,0.20
2024-03-03T22:31:00.597Z,0.10
2024-03-03T22:33:28.680Z,0.00
2024-03-03T22:35:56.459Z,0.20
2024-03-03T22:38:23.910Z,0.10
2024-03-03T22:40:53.934Z,0.20
2024-03-03T22:43:21.497Z,0.30
2024-03-03T22:45:49.435Z,0.10
2024-03-03T22:48:17.070Z,0.30
2024-03-03T22:50:46.910Z,0.10
2024-03-03T22:53:14.399Z,0.13
2024-03-03T22:55:41.968Z,0.20
2024-03-03T22:58:10.495Z,0.20
2024-03-03T23:00:43.151Z,0.63
2024-03-03T23:03:11.032Z,0.20
2024-03-03T23:05:38.936Z,0.13
2024-03-03T23:08:06.946Z,0.00
2024-03-03T23:10:34.476Z,0.10
2024-03-03T23:13:02.270Z,0.30
2024-03-03T23:15:30.152Z,0.10
2024-03-03T23:17:58.034Z,0.10
2024-03-03T23:20:27.831Z,0.17
2024-03-03T23:22:57.532Z,0.22
2024-03-03T23:25:25.288Z,0.10
2024-03-03T23:27:52.840Z,0.30
2024-03-03T23:30:22.520Z,0.03
2024-03-03T23:32:50.396Z,0.20
2024-03-03T23:35:18.911Z,0.13
2024-03-03T23:37:48.710Z,0.20
2024-03-03T23:40:16.661Z,0.20
2024-03-03T23:42:46.567Z,0.00
2024-03-03T23:45:14.213Z,0.20
2024-03-03T23:47:43.004Z,0.22
2024-03-03T23:50:10.748Z,0.15
2024-03-03T23:52:41.962Z,0.03
2024-03-03T23:55:12.549Z,0.30
2024-03-03T23:57:43.301Z,0.00
